Terminal Aerodrome Forecast
Issued by NWS

Home | Current Version | Previous Version | Text Only | Print | Product List | Glossary On
Versions: 1 2 3 4 5 6 7 8 9 10 11 12 13 14 15 16 17 18 19 20 21 22 23
000
FTUS46 KSEW 290520
TAFSEA
TAF
KSEA 290520Z 2906/3012 19008KT P6SM VCSH SCT012 BKN025 OVC040
      TEMPO 2906/2910 4SM -SHRA BR SCT006 OVC012
     FM291000 19006KT 5SM BR VCSH SCT006 OVC015
      TEMPO 2910/2914 OVC006
     FM291900 25005KT P6SM BKN030
     FM292200 27008KT P6SM SCT035 BKN050
     FM300000 33006KT P6SM SCT035 BKN050
     FM300600 04005KT P6SM SCT030 SCT050=

USA.gov is the U.S. government's official web portal to all federal, state and local government web resources and services.